Wetterdaten: Woche 03.12.01 - 09.12.01 (KW49)
Datum Zeit Temperatur Luftfeuchte Luftdruck Regenmenge Wind Richtung Taupunkt Windchill
03.12.2001 04:00 7.2 C 93 % 1018.1 hPa 0.0 l/m 3.5 km/h (1 Bft) O 6.2 C 6.9 C
03.12.2001 05:00 7.2 C 93 % 1018.5 hPa 0.0 l/m 1.7 km/h (1 Bft) O 6.2 C 7.0 C
03.12.2001 06:00 7.3 C 92 % 1019.1 hPa 0.0 l/m 0.4 km/h (0 Bft) O-SO 6.0 C 7.2 C
03.12.2001 07:00 7.2 C 91 % 1019.1 hPa 0.0 l/m 0.9 km/h (0 Bft) O 5.8 C 7.2 C
03.12.2001 08:00 7.1 C 90 % 1019.1 hPa 0.0 l/m 1.2 km/h (1 Bft) O 5.5 C 7.1 C
03.12.2001 09:00 7.5 C 87 % 1019.1 hPa 0.0 l/m 0.0 km/h (0 Bft) N 5.5 C 7.5 C
03.12.2001 10:00 7.9 C 84 % 1019.1 hPa 0.0 l/m 0.0 km/h (0 Bft) N 5.3 C 7.9 C
03.12.2001 11:00 8.4 C 82 % 1019.1 hPa 0.0 l/m 0.5 km/h (0 Bft) O 5.4 C 8.3 C
03.12.2001 12:00 8.7 C 80 % 1019.0 hPa 0.0 l/m 0.7 km/h (0 Bft) O-SO 5.5 C 8.7 C
03.12.2001 13:00 8.8 C 79 % 1018.1 hPa 0.0 l/m 0.4 km/h (0 Bft) W 5.3 C 8.8 C
03.12.2001 14:00 8.9 C 80 % 1018.1 hPa 0.0 l/m 0.0 km/h (0 Bft) N 5.7 C 8.9 C
03.12.2001 15:00 8.9 C 81 % 1018.1 hPa 0.0 l/m 0.0 km/h (0 Bft) N 5.8 C 8.9 C
03.12.2001 16:00 8.3 C 85 % 1018.1 hPa 0.0 l/m 0.0 km/h (0 Bft) N 5.9 C 8.3 C
03.12.2001 17:00 7.9 C 88 % 1018.1 hPa 0.0 l/m 0.4 km/h (0 Bft) O-SO 6.0 C 7.9 C
03.12.2001 18:00 7.6 C 90 % 1018.1 hPa 0.0 l/m 0.0 km/h (0 Bft) N 6.0 C 7.6 C
03.12.2001 19:00 7.2 C 90 % 1018.0 hPa 0.0 l/m 0.1 km/h (0 Bft) O-SO 5.6 C 7.2 C
03.12.2001 20:00 7.3 C 89 % 1017.7 hPa 0.0 l/m 0.2 km/h (0 Bft) N 5.5 C 7.3 C
03.12.2001 21:00 7.1 C 91 % 1018.1 hPa 0.0 l/m 0.0 km/h (0 Bft) N 5.8 C 7.1 C
03.12.2001 22:00 6.9 C 91 % 1017.0 hPa 0.0 l/m 3.7 km/h (1 Bft) O-SO 5.6 C 6.3 C
03.12.2001 23:00 7.0 C 90 % 1017.0 hPa 0.0 l/m 0.0 km/h (0 Bft) N 5.5 C 7.0 C
04.12.2001 00:00 6.8 C 92 % 1017.0 hPa 0.0 l/m 0.0 km/h (0 Bft) O-NO 5.6 C 6.8 C
04.12.2001 01:00 6.6 C 92 % 1016.4 hPa 0.0 l/m 1.5 km/h (1 Bft) O 5.4 C 6.5 C
04.12.2001 02:00 6.5 C 91 % 1016.0 hPa 0.0 l/m 0.0 km/h (0 Bft) N 5.1 C 6.5 C
04.12.2001 03:00 6.7 C 90 % 1016.0 hPa 0.0 l/m 2.5 km/h (1 Bft) O-SO 5.1 C 6.3 C
04.12.2001 04:00 6.7 C 90 % 1016.0 hPa 0.0 l/m 0.5 km/h (0 Bft) W 5.1 C 6.6 C
04.12.2001 05:00 6.8 C 89 % 1016.0 hPa 0.0 l/m 0.8 km/h (0 Bft) S 5.1 C 6.6 C
04.12.2001 06:00 6.6 C 90 % 1016.0 hPa 0.0 l/m 0.0 km/h (0 Bft) N 5.1 C 6.6 C
04.12.2001 07:00 6.6 C 90 % 1015.7 hPa 0.0 l/m 0.3 km/h (0 Bft) SO 5.1 C 6.5 C
04.12.2001 08:00 7.0 C 88 % 1015.6 hPa 0.0 l/m 1.5 km/h (1 Bft) SO 5.2 C 6.9 C
04.12.2001 09:00 7.3 C 86 % 1016.0 hPa 0.0 l/m 2.2 km/h (1 Bft) SO 5.0 C 7.0 C
04.12.2001 10:00 8.1 C 83 % 1015.9 hPa 0.0 l/m 2.7 km/h (1 Bft) SO 5.4 C 7.7 C
04.12.2001 11:00 8.5 C 80 % 1015.3 hPa 0.0 l/m 1.9 km/h (1 Bft) SO 5.2 C 8.4 C
04.12.2001 12:00 8.9 C 76 % 1014.9 hPa 0.0 l/m 2.9 km/h (1 Bft) SO 5.0 C 8.6 C
04.12.2001 13:00 9.2 C 73 % 1014.3 hPa 0.0 l/m 1.5 km/h (1 Bft) S 4.6 C 9.0 C
04.12.2001 14:00 8.9 C 74 % 1013.9 hPa 0.0 l/m 4.3 km/h (1 Bft) O-SO 4.5 C 8.4 C
04.12.2001 15:00 8.5 C 75 % 1013.9 hPa 0.0 l/m 4.2 km/h (1 Bft) SO 4.3 C 8.1 C
04.12.2001 16:00 7.6 C 84 % 1014.5 hPa 0.3 l/m 5.7 km/h (1 Bft) O-SO 5.1 C 6.7 C
04.12.2001 17:00 7.1 C 92 % 1014.9 hPa 1.3 l/m 0.6 km/h (0 Bft) W 5.8 C 7.1 C
04.12.2001 18:00 7.0 C 93 % 1014.9 hPa 0.9 l/m 1.2 km/h (1 Bft) W-SW 5.9 C 6.8 C
04.12.2001 19:00 7.2 C 93 % 1015.7 hPa 0.3 l/m 3.2 km/h (1 Bft) SW 6.1 C 6.7 C
04.12.2001 20:00 7.4 C 90 % 1016.0 hPa 0.0 l/m 7.6 km/h (2 Bft) SO 5.9 C 6.2 C
04.12.2001 21:00 7.5 C 88 % 1016.8 hPa 0.0 l/m 2.1 km/h (1 Bft) O-NO 5.6 C 7.3 C
04.12.2001 22:00 7.6 C 86 % 1017.0 hPa 0.0 l/m 1.7 km/h (1 Bft) SO 5.4 C 7.4 C
04.12.2001 23:00 7.4 C 86 % 1017.0 hPa 0.0 l/m 1.7 km/h (1 Bft) O-SO 5.1 C 7.2 C
05.12.2001 00:00 7.3 C 88 % 1017.9 hPa 0.3 l/m 7.4 km/h (2 Bft) W-NW 5.6 C 6.1 C
05.12.2001 01:00 7.5 C 89 % 1018.1 hPa 0.0 l/m 14.0 km/h (3 Bft) W-NW 5.8 C 5.2 C
05.12.2001 02:00 7.8 C 87 % 1018.4 hPa 0.0 l/m 16.8 km/h (3 Bft) W-NW 5.7 C 5.1 C
05.12.2001 03:00 7.8 C 85 % 1019.1 hPa 0.0 l/m 14.6 km/h (3 Bft) W-NW 5.4 C 5.4 C
05.12.2001 04:00 7.6 C 85 % 1019.2 hPa 0.0 l/m 16.0 km/h (3 Bft) W-NW 5.3 C 4.9 C
05.12.2001 05:00 7.4 C 87 % 1020.1 hPa 0.0 l/m 13.0 km/h (3 Bft) W-NW 5.4 C 5.1 C
05.12.2001 06:00 7.3 C 86 % 1020.1 hPa 0.0 l/m 12.2 km/h (2 Bft) W-NW 5.1 C 5.1 C
05.12.2001 07:00 6.9 C 86 % 1020.4 hPa 0.0 l/m 1.0 km/h (0 Bft) W 4.8 C 6.8 C
05.12.2001 08:00 6.4 C 88 % 1021.2 hPa 0.0 l/m 0.0 km/h (0 Bft) N 4.6 C 6.4 C
05.12.2001 09:00 6.9 C 85 % 1021.2 hPa 0.0 l/m 0.3 km/h (0 Bft) SO 4.6 C 6.9 C
05.12.2001 10:00 7.6 C 79 % 1021.2 hPa 0.0 l/m 1.2 km/h (1 Bft) W 4.2 C 7.4 C
05.12.2001 11:00 7.8 C 81 % 1020.6 hPa 0.0 l/m 0.0 km/h (0 Bft) N 4.8 C 7.8 C
05.12.2001 12:00 8.9 C 76 % 1020.1 hPa 0.0 l/m 0.1 km/h (0 Bft) N 4.9 C 8.9 C
05.12.2001 13:00 8.8 C 79 % 1019.7 hPa 0.0 l/m 0.4 km/h (0 Bft) W 5.4 C 8.8 C
05.12.2001 14:00 8.0 C 89 % 1019.1 hPa 0.9 l/m 0.9 km/h (0 Bft) O-SO 6.3 C 8.0 C
05.12.2001 15:00 7.6 C 93 % 1019.1 hPa 1.3 l/m 2.1 km/h (1 Bft) W-NW 6.5 C 7.3 C
05.12.2001 16:00 7.1 C 91 % 1019.1 hPa 0.3 l/m 2.1 km/h (1 Bft) W-NW 5.8 C 6.8 C
05.12.2001 17:00 6.8 C 92 % 1019.1 hPa 0.0 l/m 3.0 km/h (1 Bft) O-SO 5.6 C 6.3 C
05.12.2001 18:00 6.7 C 93 % 1018.6 hPa 0.3 l/m 7.5 km/h (2 Bft) O-SO 5.7 C 5.3 C
05.12.2001 19:00 7.2 C 88 % 1018.1 hPa 0.0 l/m 10.9 km/h (2 Bft) SO 5.4 C 5.2 C
05.12.2001 20:00 7.3 C 87 % 1017.5 hPa 0.0 l/m 5.0 km/h (1 Bft) S 5.2 C 6.4 C
05.12.2001 21:00 6.7 C 92 % 1017.0 hPa 0.0 l/m 0.6 km/h (0 Bft) N-NW 5.6 C 6.6 C
05.12.2001 22:00 6.8 C 93 % 1016.9 hPa 0.3 l/m 0.2 km/h (0 Bft) N 5.7 C 6.8 C
05.12.2001 23:00 7.1 C 94 % 1016.0 hPa 0.3 l/m 2.0 km/h (1 Bft) O 6.3 C 6.9 C
06.12.2001 00:00 7.8 C 94 % 1015.9 hPa 0.0 l/m 2.2 km/h (1 Bft) S-SO 6.8 C 7.5 C
06.12.2001 01:00 8.6 C 91 % 1016.0 hPa 0.0 l/m 10.0 km/h (2 Bft) S-SO 7.2 C 7.1 C
06.12.2001 02:00 9.2 C 90 % 1016.0 hPa 0.0 l/m 16.5 km/h (3 Bft) SW 7.5 C 7.2 C
06.12.2001 03:00 10.3 C 88 % 1016.0 hPa 0.0 l/m 38.9 km/h (6 Bft) W-NW 8.3 C 9.8 C
06.12.2001 04:00 10.2 C 83 % 1016.0 hPa 0.0 l/m 37.2 km/h (5 Bft) W-NW 7.4 C 10.2 C
06.12.2001 05:00 9.9 C 78 % 1016.2 hPa 0.0 l/m 43.0 km/h (6 Bft) W-NW 6.2 C 5.9 C
06.12.2001 06:00 9.9 C 73 % 1017.6 hPa 0.0 l/m 36.4 km/h (5 Bft) W-NW 5.2 C 7.4 C
06.12.2001 07:00 9.1 C 70 % 1018.8 hPa 0.0 l/m 30.2 km/h (5 Bft) W-NW 4.0 C 5.5 C
06.12.2001 08:00 8.5 C 72 % 1020.0 hPa 0.0 l/m 30.7 km/h (5 Bft) W-NW 3.8 C 4.6 C
06.12.2001 09:00 8.2 C 67 % 1021.2 hPa 0.0 l/m 23.9 km/h (4 Bft) W-NW 2.5 C 4.8 C
06.12.2001 10:00 8.3 C 65 % 1021.3 hPa 0.0 l/m 27.2 km/h (4 Bft) W-NW 2.1 C 4.6 C
06.12.2001 11:00 8.2 C 64 % 1022.2 hPa 0.0 l/m 27.1 km/h (4 Bft) W-NW 1.7 C 4.4 C
06.12.2001 12:00 8.2 C 64 % 1023.1 hPa 0.0 l/m 20.8 km/h (4 Bft) W-NW 1.7 C 5.1 C
06.12.2001 13:00 8.1 C 60 % 1023.5 hPa 0.0 l/m 26.7 km/h (4 Bft) W-NW 0.9 C 4.4 C
06.12.2001 14:00 7.4 C 65 % 1024.3 hPa 0.0 l/m 21.9 km/h (4 Bft) W-NW 1.2 C 4.0 C
06.12.2001 15:00 7.5 C 68 % 1024.8 hPa 0.0 l/m 12.6 km/h (3 Bft) W-NW 1.9 C 5.4 C
06.12.2001 16:00 6.4 C 73 % 1025.5 hPa 0.0 l/m 6.5 km/h (2 Bft) W 2.0 C 5.3 C
06.12.2001 17:00 5.7 C 76 % 1026.4 hPa 0.0 l/m 12.2 km/h (2 Bft) W 1.9 C 3.1 C
06.12.2001 18:00 4.3 C 81 % 1026.5 hPa 0.0 l/m 0.6 km/h (0 Bft) W 1.3 C 4.2 C
06.12.2001 19:00 3.3 C 88 % 1027.4 hPa 0.0 l/m 3.1 km/h (1 Bft) S-SO 1.5 C 2.4 C
06.12.2001 20:00 2.1 C 91 % 1027.4 hPa 0.0 l/m 2.8 km/h (1 Bft) SO 0.8 C 1.5 C
06.12.2001 21:00 1.8 C 92 % 1027.4 hPa 0.0 l/m 3.8 km/h (1 Bft) SO 0.7 C 0.9 C
06.12.2001 22:00 1.6 C 93 % 1027.4 hPa 0.0 l/m 2.0 km/h (1 Bft) SO 0.5 C 1.2 C
06.12.2001 23:00 1.7 C 93 % 1027.4 hPa 0.0 l/m 1.7 km/h (1 Bft) SO 0.7 C 1.4 C
07.12.2001 00:00 0.6 C 94 % 1027.4 hPa 0.0 l/m 2.1 km/h (1 Bft) SO -0.3 C 0.3 C
07.12.2001 01:00 0.8 C 95 % 1027.4 hPa 0.0 l/m 0.0 km/h (0 Bft) N 0.1 C 0.8 C
07.12.2001 02:00 0.8 C 96 % 1027.4 hPa 0.0 l/m 0.8 km/h (0 Bft) SO 0.3 C 0.7 C
07.12.2001 03:00 0.4 C 96 % 1028.2 hPa 0.0 l/m 0.0 km/h (0 Bft) N -0.2 C 0.4 C
07.12.2001 04:00 -0.5 C 95 % 1027.7 hPa 0.0 l/m 0.4 km/h (0 Bft) SO -1.2 C -0.5 C
07.12.2001 05:00 0.1 C 96 % 1028.5 hPa 0.0 l/m 0.1 km/h (0 Bft) N -0.5 C 0.1 C
07.12.2001 06:00 0.1 C 94 % 1028.5 hPa 0.0 l/m 0.1 km/h (0 Bft) N -0.8 C 0.1 C
07.12.2001 07:00 -0.5 C 94 % 1028.7 hPa 0.0 l/m 0.0 km/h (0 Bft) N -1.3 C -0.5 C
07.12.2001 08:00 -0.4 C 93 % 1029.5 hPa 0.0 l/m 0.0 km/h (0 Bft) N -1.4 C -0.4 C
07.12.2001 09:00 0.7 C 89 % 1029.5 hPa 0.0 l/m 0.1 km/h (0 Bft) N -1.0 C 0.7 C
07.12.2001 10:00 2.1 C 80 % 1029.3 hPa 0.0 l/m 2.3 km/h (1 Bft) O-NO -1.1 C 1.5 C
07.12.2001 11:00 2.9 C 78 % 1029.5 hPa 0.0 l/m 6.5 km/h (2 Bft) O -0.6 C 1.5 C
07.12.2001 12:00 3.6 C 73 % 1028.6 hPa 0.0 l/m 10.9 km/h (2 Bft) O -0.8 C 0.9 C
07.12.2001 13:00 4.7 C 70 % 1028.5 hPa 0.0 l/m 9.8 km/h (2 Bft) O-SO -0.3 C 2.8 C
07.12.2001 14:00 4.3 C 69 % 1028.5 hPa 0.0 l/m 19.2 km/h (3 Bft) O-SO -0.9 C 0.6 C
07.12.2001 15:00 3.5 C 70 % 1028.5 hPa 0.0 l/m 9.5 km/h (2 Bft) O -1.4 C 1.5 C
07.12.2001 16:00 3.1 C 70 % 1028.5 hPa 0.0 l/m 9.6 km/h (2 Bft) O-NO -1.9 C 0.7 C
07.12.2001 17:00 2.9 C 70 % 1028.5 hPa 0.0 l/m 6.9 km/h (2 Bft) O-NO -1.9 C 1.3 C
07.12.2001 18:00 3.0 C 72 % 1028.5 hPa 0.0 l/m 3.4 km/h (1 Bft) NO -1.6 C 2.3 C
07.12.2001 19:00 2.9 C 71 % 1028.5 hPa 0.0 l/m 6.4 km/h (2 Bft) NO -1.8 C 1.5 C
07.12.2001 20:00 2.3 C 73 % 1028.5 hPa 0.0 l/m 3.9 km/h (1 Bft) NO -2.1 C 1.3 C
07.12.2001 21:00 2.0 C 76 % 1028.5 hPa 0.0 l/m 2.2 km/h (1 Bft) N-NO -1.9 C 1.7 C
07.12.2001 22:00 2.2 C 75 % 1028.9 hPa 0.0 l/m 3.0 km/h (1 Bft) N-NO -1.8 C 1.8 C
07.12.2001 23:00 1.9 C 76 % 1028.5 hPa 0.0 l/m 2.3 km/h (1 Bft) N-NO -1.8 C 1.4 C
08.12.2001 00:00 1.5 C 78 % 1028.5 hPa 0.0 l/m 2.1 km/h (1 Bft) N -2.0 C 1.1 C
08.12.2001 01:00 1.9 C 74 % 1029.0 hPa 0.0 l/m 3.5 km/h (1 Bft) N-NO -2.1 C 1.1 C
08.12.2001 02:00 2.1 C 75 % 1028.5 hPa 0.0 l/m 2.8 km/h (1 Bft) NO -1.9 C 1.5 C
08.12.2001 03:00 2.4 C 71 % 1028.5 hPa 0.0 l/m 2.8 km/h (1 Bft) NO -2.3 C 1.9 C
08.12.2001 04:00 2.4 C 71 % 1028.9 hPa 0.0 l/m 4.2 km/h (1 Bft) NO -2.4 C 1.3 C
08.12.2001 05:00 2.4 C 70 % 1029.1 hPa 0.0 l/m 1.7 km/h (1 Bft) O -2.5 C 2.2 C
08.12.2001 06:00 2.3 C 69 % 1028.5 hPa 0.0 l/m 1.7 km/h (1 Bft) NO -2.7 C 2.1 C
08.12.2001 07:00 2.2 C 68 % 1029.4 hPa 0.0 l/m 3.9 km/h (1 Bft) N -3.1 C 1.4 C
08.12.2001 08:00 1.9 C 68 % 1029.7 hPa 0.0 l/m 5.9 km/h (2 Bft) NO -3.3 C 0.5 C
08.12.2001 09:00 2.0 C 67 % 1030.5 hPa 0.0 l/m 5.0 km/h (1 Bft) N -3.5 C 0.9 C
08.12.2001 10:00 2.3 C 65 % 1030.5 hPa 0.0 l/m 5.7 km/h (1 Bft) N-NO -3.5 C 1.0 C
08.12.2001 11:00 2.6 C 64 % 1030.4 hPa 0.0 l/m 3.7 km/h (1 Bft) NO -3.5 C 2.0 C
08.12.2001 12:00 2.9 C 63 % 1029.5 hPa 0.0 l/m 7.0 km/h (2 Bft) NO -3.5 C 1.3 C
08.12.2001 13:00 3.1 C 61 % 1029.5 hPa 0.0 l/m 5.8 km/h (2 Bft) O -3.6 C 1.9 C
08.12.2001 14:00 2.8 C 62 % 1029.5 hPa 0.0 l/m 4.5 km/h (1 Bft) NO -3.7 C 2.0 C
08.12.2001 15:00 2.1 C 66 % 1030.4 hPa 0.0 l/m 1.7 km/h (1 Bft) O-NO -3.5 C 1.9 C
08.12.2001 16:00 1.1 C 71 % 1030.7 hPa 0.0 l/m 0.6 km/h (0 Bft) O-NO -3.6 C 1.1 C
08.12.2001 17:00 1.1 C 70 % 1031.6 hPa 0.0 l/m 1.6 km/h (1 Bft) NO -3.7 C 0.8 C
08.12.2001 18:00 1.0 C 69 % 1032.6 hPa 0.0 l/m 3.7 km/h (1 Bft) O-NO -4.1 C 0.1 C
08.12.2001 19:00 0.7 C 70 % 1031.7 hPa 0.0 l/m 4.8 km/h (1 Bft) N-NO -4.2 C -0.3 C
08.12.2001 20:00 0.3 C 70 % 1031.6 hPa 0.0 l/m 1.7 km/h (1 Bft) N-NO -4.4 C 0.0 C
08.12.2001 21:00 0.1 C 69 % 1031.7 hPa 0.0 l/m 4.0 km/h (1 Bft) O-NO -4.9 C -0.9 C
08.12.2001 22:00 -0.2 C 68 % 1031.6 hPa 0.0 l/m 1.9 km/h (1 Bft) O -5.3 C -0.6 C
08.12.2001 23:00 -0.4 C 68 % 1031.6 hPa 0.0 l/m 4.2 km/h (1 Bft) NO -5.5 C -1.3 C
09.12.2001 00:00 -0.6 C 69 % 1031.6 hPa 0.0 l/m 7.0 km/h (2 Bft) O-NO -5.6 C -2.6 C
09.12.2001 01:00 -0.8 C 70 % 1031.6 hPa 0.0 l/m 7.3 km/h (2 Bft) O -5.6 C -2.9 C
09.12.2001 02:00 -0.9 C 70 % 1031.6 hPa 0.0 l/m 3.1 km/h (1 Bft) NO -5.8 C -1.8 C
09.12.2001 03:00 -0.9 C 69 % 1031.6 hPa 0.0 l/m 6.0 km/h (2 Bft) NO -5.9 C -2.9 C
09.12.2001 04:00 -1.0 C 69 % 1031.6 hPa 0.0 l/m 2.3 km/h (1 Bft) N-NO -5.9 C -1.6 C
09.12.2001 05:00 -1.1 C 69 % 1031.6 hPa 0.0 l/m 1.1 km/h (1 Bft) N -6.0 C -1.3 C
09.12.2001 06:00 -1.3 C 69 % 1031.6 hPa 0.0 l/m 1.9 km/h (1 Bft) N -6.1 C -1.7 C
09.12.2001 07:00 -1.4 C 69 % 1031.6 hPa 0.0 l/m 1.2 km/h (1 Bft) N-NO -6.2 C -1.7 C
09.12.2001 08:00 -1.4 C 70 % 1032.4 hPa 0.0 l/m 2.0 km/h (1 Bft) N-NO -6.2 C -1.9 C
09.12.2001 09:00 -1.2 C 69 % 1032.6 hPa 0.0 l/m 2.9 km/h (1 Bft) N-NO -6.2 C -1.8 C
09.12.2001 10:00 -0.8 C 68 % 1032.6 hPa 0.0 l/m 9.1 km/h (2 Bft) O -6.0 C -3.5 C
09.12.2001 11:00 0.0 C 66 % 1032.6 hPa 0.0 l/m 16.0 km/h (3 Bft) O-SO -5.5 C -4.5 C
09.12.2001 12:00 0.6 C 66 % 1031.8 hPa 0.0 l/m 20.2 km/h (4 Bft) O-SO -5.1 C -4.5 C
09.12.2001 13:00 1.5 C 63 % 1031.6 hPa 0.0 l/m 18.1 km/h (3 Bft) O-SO -4.7 C -3.0 C
09.12.2001 14:00 1.9 C 60 % 1031.6 hPa 0.0 l/m 12.1 km/h (2 Bft) O -5.1 C -1.1 C
09.12.2001 15:00 1.6 C 59 % 1031.6 hPa 0.0 l/m 14.8 km/h (3 Bft) O-SO -5.4 C -2.2 C
09.12.2001 16:00 0.8 C 60 % 1031.6 hPa 0.0 l/m 15.0 km/h (3 Bft) O-SO -6.2 C -3.3 C
09.12.2001 17:00 -0.2 C 61 % 1031.8 hPa 0.0 l/m 7.1 km/h (2 Bft) O -6.8 C -2.1 C
09.12.2001 18:00 -1.0 C 64 % 1032.6 hPa 0.0 l/m 3.0 km/h (1 Bft) NO -7.0 C -1.8 C
09.12.2001 19:00 -1.5 C 64 % 1032.6 hPa 0.0 l/m 2.9 km/h (1 Bft) O -7.4 C -2.1 C
09.12.2001 20:00 -2.1 C 65 % 1032.6 hPa 0.0 l/m 3.9 km/h (1 Bft) O -7.7 C -3.2 C
09.12.2001 21:00 -2.6 C 67 % 1032.6 hPa 0.0 l/m 5.2 km/h (1 Bft) O -7.9 C -4.3 C
09.12.2001 22:00 -2.9 C 68 % 1032.6 hPa 0.0 l/m 3.5 km/h (1 Bft) NO -8.0 C -3.8 C
09.12.2001 23:00 -3.2 C 68 % 1032.6 hPa 0.0 l/m 8.9 km/h (2 Bft) O-SO -8.2 C -6.1 C
Min-Datum _ 09.12.01 03.12.01 03.12.01 - 03.12.01 - 09.12.01 09.12.01
_ Min-Zeit 23:10 00:00 00:00 - 00:00 - 23:10 23:25
Minimum _ -3.5 C 0 % 0.0 hPa - 0.0 km/h (0 Bft) - -8.5 C -9.7 C
Max-Datum _ 06.12.01 07.12.01 08.12.01 04.12.01 06.12.01 - 06.12.01 06.12.01
_ Max-Zeit 03:30 02:25 18:05 16:00 03:48 - 03:21 03:30
Maximum _ 10.5 C 97 % 1032.6 hPa 1.3 l/m 63.4 km/h
W-NW (8 Bft)
- 8.7 C 10.5 C
Durchschnitt _ 4.5 C 79 % 1023.8 hPa #6.6 l/m 6.0 km/h (2 Bft) W-NW 1.1 C 3.5 C

Durchschnitt Minimum Temp.4.2 C
Durchschnitt Maximum Temp.4.9 C
© Kaiko 2001